Time;durP1;ratioP1;P1;durP2;ratioP2;P2;SDS_P1;SDS_P2;PMS_P1;PMS_P2;Temp;Humidity;BMP_temperature;BMP_pressure;BME280_temperature;BME280_humidity;BME280_pressure;Samples;Min_cycle;Max_cycle;Signal;HPM_P1;HPM_P2
2023/09/21 00:01:34;;;;;;;7.72;5.93;;;17.10;99.90;;;;;;4593972;19;20006;-69
2023/09/21 00:03:08;;;;;;;7.65;5.40;;;17.10;99.90;;;;;;4594744;19;20003;-69
2023/09/21 00:04:45;;;;;;;6.70;4.78;;;17.10;99.90;;;;;;4594975;19;20014;-69
2023/09/21 00:06:19;;;;;;;6.72;5.43;;;17.10;99.90;;;;;;4595199;19;20426;-69
2023/09/21 00:07:57;;;;;;;6.85;5.15;;;17.10;99.90;;;;;;4595169;19;20075;-69
2023/09/21 00:09:33;;;;;;;6.93;5.57;;;17.10;99.90;;;;;;4593364;19;20044;-69
2023/09/21 00:11:07;;;;;;;7.75;5.72;;;17.10;99.90;;;;;;4593578;19;20423;-69
2023/09/21 00:12:41;;;;;;;7.72;5.32;;;17.00;99.90;;;;;;4594762;19;19999;-69
2023/09/21 00:14:18;;;;;;;7.40;5.75;;;17.10;99.90;;;;;;4594914;19;20066;-69
2023/09/21 00:15:59;;;;;;;7.65;6.05;;;17.00;99.90;;;;;;4594552;19;20039;-69
2023/09/21 00:17:34;;;;;;;6.97;5.65;;;17.00;99.90;;;;;;4594868;19;20013;-69
2023/09/21 00:19:10;;;;;;;7.38;5.70;;;17.00;99.90;;;;;;4594839;19;20006;-68
2023/09/21 00:20:48;;;;;;;6.88;5.75;;;17.00;99.90;;;;;;4592706;19;20343;-69
2023/09/21 00:22:25;;;;;;;7.65;6.10;;;17.00;99.90;;;;;;4593171;19;20020;-68
2023/09/21 00:24:15;;;;;;;6.90;5.25;;;17.00;99.90;;;;;;4593139;19;20024;-69
2023/09/21 00:25:50;;;;;;;7.13;5.88;;;17.00;99.90;;;;;;4594131;19;20006;-69
2023/09/21 00:27:28;;;;;;;7.18;5.78;;;17.00;99.90;;;;;;4594096;19;20103;-69
2023/09/21 00:29:05;;;;;;;7.30;5.60;;;17.00;99.90;;;;;;4594441;19;20030;-69
2023/09/21 00:30:43;;;;;;;6.75;5.70;;;17.00;99.90;;;;;;4591706;19;20446;-69
2023/09/21 00:32:17;;;;;;;6.88;5.45;;;17.00;99.90;;;;;;4594018;19;20013;-69
2023/09/21 00:33:52;;;;;;;7.40;5.82;;;17.00;99.90;;;;;;4594004;19;20430;-69
2023/09/21 00:35:27;;;;;;;8.13;5.57;;;17.00;99.90;;;;;;4594000;19;20327;-69
2023/09/21 00:37:01;;;;;;;7.28;5.32;;;17.00;99.90;;;;;;4593949;19;20003;-69
2023/09/21 00:38:37;;;;;;;6.57;5.25;;;17.00;99.90;;;;;;4592852;19;20298;-69
2023/09/21 00:40:17;;;;;;;6.35;5.28;;;17.00;99.90;;;;;;4591809;19;20007;-69
2023/09/21 00:41:51;;;;;;;6.38;5.63;;;17.00;99.90;;;;;;4593603;19;20098;-69
2023/09/21 00:43:27;;;;;;;7.72;6.22;;;17.00;99.90;;;;;;4593881;19;20006;-69
2023/09/21 00:45:02;;;;;;;7.15;5.72;;;17.00;99.90;;;;;;4592696;19;19999;-69
2023/09/21 00:46:38;;;;;;;7.68;6.07;;;17.00;99.90;;;;;;4593350;19;20007;-69
2023/09/21 00:48:17;;;;;;;7.85;6.18;;;16.90;99.90;;;;;;4592019;19;20005;-69
2023/09/21 00:49:52;;;;;;;7.65;6.35;;;16.90;99.90;;;;;;4593101;19;20414;-69
2023/09/21 00:51:27;;;;;;;7.50;6.28;;;16.90;99.90;;;;;;4592435;19;20017;-69
2023/09/21 00:53:05;;;;;;;7.85;6.18;;;16.90;99.90;;;;;;4593664;19;20032;-69
2023/09/21 00:54:40;;;;;;;6.65;5.88;;;16.90;99.90;;;;;;4593608;19;20040;-69
2023/09/21 00:56:17;;;;;;;8.00;6.05;;;16.90;99.90;;;;;;4592289;19;20021;-69
2023/09/21 00:57:57;;;;;;;8.38;6.80;;;16.90;99.90;;;;;;4592095;19;20017;-69
2023/09/21 00:59:35;;;;;;;8.32;6.30;;;16.90;99.90;;;;;;4593218;19;20476;-69
2023/09/21 01:01:23;;;;;;;9.25;7.03;;;16.80;99.90;;;;;;4593799;19;20017;-69
2023/09/21 01:03:11;;;;;;;8.15;6.45;;;16.80;99.90;;;;;;4593437;19;20006;-69
2023/09/21 01:04:47;;;;;;;9.00;7.35;;;16.80;99.90;;;;;;4592025;19;20058;-69
2023/09/21 01:06:21;;;;;;;9.55;7.63;;;16.80;99.90;;;;;;4592939;19;20026;-69
2023/09/21 01:07:56;;;;;;;7.82;6.50;;;16.80;99.90;;;;;;4593227;19;20082;-69
2023/09/21 01:09:30;;;;;;;8.52;7.30;;;16.80;99.90;;;;;;4593485;19;20003;-69
2023/09/21 01:11:10;;;;;;;7.82;6.70;;;16.80;99.90;;;;;;4592467;19;19995;-69
2023/09/21 01:12:50;;;;;;;9.43;7.63;;;16.80;99.90;;;;;;4591925;19;20110;-68
2023/09/21 01:14:24;;;;;;;8.43;6.93;;;16.80;99.90;;;;;;4592398;19;20058;-69
2023/09/21 01:16:03;;;;;;;9.73;7.72;;;16.80;99.90;;;;;;4593062;19;20009;-69
2023/09/21 01:17:55;;;;;;;9.63;8.50;;;16.80;99.90;;;;;;4593347;19;20010;-69
2023/09/21 01:19:31;;;;;;;9.75;7.47;;;16.80;99.90;;;;;;4592213;19;20011;-69
2023/09/21 01:21:06;;;;;;;10.32;8.20;;;16.80;99.90;;;;;;4591674;19;20315;-69
2023/09/21 01:22:46;;;;;;;9.85;7.60;;;16.70;99.90;;;;;;4593116;19;20003;-69
2023/09/21 01:24:23;;;;;;;9.85;8.40;;;16.70;99.90;;;;;;4591917;19;20014;-69
2023/09/21 01:26:00;;;;;;;10.60;8.57;;;16.70;99.90;;;;;;4591868;19;20038;-69
2023/09/21 01:27:37;;;;;;;11.43;9.32;;;16.70;99.90;;;;;;4591565;19;20006;-69
2023/09/21 01:29:14;;;;;;;11.48;9.30;;;16.70;99.90;;;;;;4592869;19;20010;-69
2023/09/21 01:30:52;;;;;;;10.87;8.70;;;16.70;99.90;;;;;;4590581;19;20010;-69
2023/09/21 01:32:28;;;;;;;11.45;8.85;;;16.80;99.90;;;;;;4592758;19;20994;-69
2023/09/21 01:34:03;;;;;;;10.60;8.98;;;16.80;99.90;;;;;;4592750;19;20038;-69
2023/09/21 01:35:37;;;;;;;11.05;8.20;;;16.80;99.90;;;;;;4592696;19;20005;-69
2023/09/21 01:37:14;;;;;;;10.68;7.75;;;16.80;99.90;;;;;;4592775;19;20006;-69
2023/09/21 01:38:50;;;;;;;9.70;8.00;;;16.80;99.90;;;;;;4592735;19;20015;-69
2023/09/21 01:40:29;;;;;;;9.98;8.20;;;16.80;99.90;;;;;;4592088;19;20429;-69
2023/09/21 01:42:05;;;;;;;10.63;8.45;;;16.80;99.90;;;;;;4592678;19;20007;-69
2023/09/21 01:43:41;;;;;;;10.93;8.50;;;16.80;99.90;;;;;;4592764;19;20435;-69
2023/09/21 01:45:16;;;;;;;10.63;7.95;;;16.80;99.90;;;;;;4592519;19;20513;-69
2023/09/21 01:46:52;;;;;;;10.18;8.20;;;16.80;99.90;;;;;;4592795;19;20339;-69
2023/09/21 01:48:27;;;;;;;9.90;8.13;;;16.80;99.90;;;;;;4592487;19;19999;-69
2023/09/21 01:50:03;;;;;;;9.07;7.68;;;16.80;99.90;;;;;;4591841;19;20014;-69
2023/09/21 01:51:41;;;;;;;9.15;7.88;;;16.80;99.90;;;;;;4591331;19;20078;-69
2023/09/21 01:53:22;;;;;;;10.05;8.38;;;16.90;99.90;;;;;;4592575;19;20008;-69
2023/09/21 01:55:05;;;;;;;10.07;8.43;;;16.80;99.90;;;;;;4592331;19;20010;-69
2023/09/21 01:56:40;;;;;;;10.38;8.77;;;16.80;99.90;;;;;;4592437;19;20010;-68
2023/09/21 01:58:14;;;;;;;9.48;8.13;;;16.80;99.90;;;;;;4592091;19;20005;-69
2023/09/21 01:59:50;;;;;;;8.90;7.20;;;16.80;99.90;;;;;;4588984;19;20032;-69
2023/09/21 02:01:27;;;;;;;9.52;8.23;;;16.80;99.90;;;;;;4591811;19;20002;-69
2023/09/21 02:03:06;;;;;;;8.65;7.75;;;16.80;99.90;;;;;;4592213;19;20006;-69
2023/09/21 02:04:41;;;;;;;10.13;8.07;;;16.80;99.90;;;;;;4590625;19;20459;-69
2023/09/21 02:06:16;;;;;;;8.95;7.68;;;16.80;99.90;;;;;;4591987;19;20014;-69
2023/09/21 02:07:51;;;;;;;9.70;8.20;;;16.70;99.90;;;;;;4592148;19;20066;-69
2023/09/21 02:09:25;;;;;;;9.65;8.07;;;16.70;99.90;;;;;;4592095;19;20353;-69
2023/09/21 02:11:01;;;;;;;8.30;7.18;;;16.70;99.90;;;;;;4591613;19;20006;-69
2023/09/21 02:12:40;;;;;;;8.07;7.28;;;16.70;99.90;;;;;;4591829;19;20006;-69
2023/09/21 02:14:15;;;;;;;9.75;8.15;;;16.60;99.90;;;;;;4590799;19;20296;-69
2023/09/21 02:15:53;;;;;;;10.05;8.13;;;16.70;99.90;;;;;;4591582;19;20087;-69
2023/09/21 02:17:29;;;;;;;11.38;8.10;;;16.70;99.90;;;;;;4591802;19;20009;-69
2023/09/21 02:19:04;;;;;;;9.00;8.07;;;16.70;99.90;;;;;;4591633;19;20376;-69
2023/09/21 02:20:44;;;;;;;8.73;7.82;;;16.80;99.90;;;;;;4590580;19;20018;-69
2023/09/21 02:22:21;;;;;;;10.30;8.05;;;16.70;99.90;;;;;;4591589;19;20011;-69
2023/09/21 02:23:55;;;;;;;8.90;7.88;;;16.70;99.90;;;;;;4591633;19;20095;-69
2023/09/21 02:25:31;;;;;;;8.80;7.45;;;16.70;99.90;;;;;;4591960;19;20006;-69
2023/09/21 02:27:05;;;;;;;9.35;8.35;;;16.80;99.90;;;;;;4590232;19;19999;-69
2023/09/21 02:28:40;;;;;;;9.57;7.68;;;16.80;99.90;;;;;;4591142;19;20010;-69
2023/09/21 02:30:17;;;;;;;10.25;7.63;;;16.80;99.90;;;;;;4590923;19;20036;-69
2023/09/21 02:31:52;;;;;;;9.07;7.88;;;16.80;99.90;;;;;;4590183;19;20027;-69
2023/09/21 02:33:29;;;;;;;10.95;8.90;;;16.80;99.90;;;;;;4591233;19;20023;-69
2023/09/21 02:35:07;;;;;;;11.68;8.35;;;16.80;99.90;;;;;;4591545;19;20016;-69
2023/09/21 02:36:42;;;;;;;9.43;8.10;;;16.80;99.90;;;;;;4591405;19;20014;-69
2023/09/21 02:38:18;;;;;;;10.95;9.30;;;16.80;99.90;;;;;;4591622;19;20003;-69
2023/09/21 02:39:53;;;;;;;9.63;8.10;;;16.90;99.90;;;;;;4590948;19;20082;-69
2023/09/21 02:41:28;;;;;;;12.02;8.65;;;16.80;99.90;;;;;;4591348;19;20062;-69
2023/09/21 02:43:02;;;;;;;9.68;8.60;;;16.90;99.90;;;;;;4591354;19;20003;-69
2023/09/21 02:44:39;;;;;;;10.30;8.73;;;16.90;99.90;;;;;;4590048;19;20007;-69
2023/09/21 02:46:13;;;;;;;8.80;7.38;;;16.90;99.90;;;;;;4591198;19;20034;-69
2023/09/21 02:47:49;;;;;;;10.55;8.45;;;16.90;99.90;;;;;;4591423;19;20020;-69
2023/09/21 02:49:24;;;;;;;9.93;8.15;;;16.90;99.90;;;;;;4591262;19;20006;-69
2023/09/21 02:51:01;;;;;;;9.60;8.45;;;16.90;99.90;;;;;;4590084;19;20003;-69
2023/09/21 02:52:36;;;;;;;12.88;9.45;;;17.00;99.90;;;;;;4589885;19;20089;-69
2023/09/21 02:54:11;;;;;;;10.55;8.65;;;16.90;99.90;;;;;;4590813;19;20013;-69
2023/09/21 02:55:45;;;;;;;11.07;8.88;;;16.90;99.90;;;;;;4591052;19;20530;-69
2023/09/21 02:57:22;;;;;;;10.50;8.80;;;16.90;99.90;;;;;;4591035;19;19999;-69
2023/09/21 02:58:57;;;;;;;12.60;9.73;;;16.90;99.90;;;;;;4591384;19;20011;-69
2023/09/21 03:00:35;;;;;;;9.60;8.60;;;16.90;99.90;;;;;;4590091;19;20391;-69
2023/09/21 03:02:09;;;;;;;11.52;9.82;;;16.90;99.90;;;;;;4589651;19;20003;-69
2023/09/21 03:03:45;;;;;;;11.75;9.80;;;16.90;99.90;;;;;;4591007;19;20079;-69
2023/09/21 03:05:19;;;;;;;12.63;10.00;;;16.90;99.90;;;;;;4590933;19;20006;-69
2023/09/21 03:06:55;;;;;;;11.32;10.13;;;16.90;99.90;;;;;;4590857;19;20007;-69
2023/09/21 03:08:31;;;;;;;12.80;10.95;;;16.90;99.90;;;;;;4590976;19;20017;-69
2023/09/21 03:10:09;;;;;;;15.40;11.52;;;16.90;99.90;;;;;;4590497;19;20021;-69
2023/09/21 03:11:45;;;;;;;14.07;11.50;;;16.90;99.90;;;;;;4589703;19;20007;-69
2023/09/21 03:13:21;;;;;;;15.82;12.00;;;16.90;99.90;;;;;;4594155;19;20303;-68
2023/09/21 03:14:56;;;;;;;15.32;12.25;;;17.00;99.90;;;;;;4595433;19;20350;-69
2023/09/21 03:16:31;;;;;;;14.85;12.45;;;16.90;99.90;;;;;;4595661;19;20422;-69
2023/09/21 03:18:06;;;;;;;15.77;12.00;;;17.00;99.90;;;;;;4595670;19;20058;-69
2023/09/21 03:19:40;;;;;;;13.35;11.35;;;17.00;99.90;;;;;;4595288;19;20003;-69
2023/09/21 03:21:19;;;;;;;15.50;12.00;;;17.00;99.90;;;;;;4592074;19;20456;-68
2023/09/21 03:22:54;;;;;;;15.20;11.88;;;16.90;99.90;;;;;;4595274;19;20006;-68
2023/09/21 03:24:28;;;;;;;14.27;12.02;;;16.90;99.90;;;;;;4595171;19;20010;-69
2023/09/21 03:26:02;;;;;;;15.27;11.98;;;17.00;99.90;;;;;;4595641;19;20025;-69
2023/09/21 03:27:38;;;;;;;14.23;11.85;;;17.00;99.90;;;;;;4595581;19;20010;-69
2023/09/21 03:29:12;;;;;;;14.07;10.73;;;16.90;99.90;;;;;;4595386;19;20002;-69
2023/09/21 03:30:47;;;;;;;13.43;10.38;;;17.00;99.90;;;;;;4593593;19;20006;-69
2023/09/21 03:32:26;;;;;;;13.65;10.82;;;16.90;99.90;;;;;;4595156;19;20426;-69
2023/09/21 03:34:02;;;;;;;12.85;10.75;;;17.00;99.90;;;;;;4595062;19;20002;-69
2023/09/21 03:35:38;;;;;;;12.85;9.85;;;16.90;99.90;;;;;;4595071;19;20023;-69
2023/09/21 03:37:14;;;;;;;13.52;10.18;;;16.90;99.90;;;;;;4595339;19;20013;-69
2023/09/21 03:38:49;;;;;;;12.25;10.40;;;17.00;99.90;;;;;;4594899;19;20019;-69
2023/09/21 03:40:25;;;;;;;12.82;10.38;;;17.00;99.90;;;;;;4593803;19;20014;-69
2023/09/21 03:42:05;;;;;;;12.77;10.35;;;16.90;99.90;;;;;;4594910;19;20279;-69
2023/09/21 03:43:43;;;;;;;13.40;10.27;;;17.00;99.90;;;;;;4595320;19;20322;-69
2023/09/21 03:45:24;;;;;;;13.57;9.90;;;17.30;99.90;;;;;;4593608;19;20026;-69
2023/09/21 03:47:00;;;;;;;13.25;9.73;;;17.60;99.90;;;;;;4593571;19;20485;-69
2023/09/21 03:48:35;;;;;;;13.55;9.30;;;18.00;99.90;;;;;;4593226;19;20018;-69
2023/09/21 03:50:17;;;;;;;12.30;9.38;;;18.30;99.90;;;;;;4593810;19;20014;-69
2023/09/21 03:51:53;;;;;;;13.50;9.02;;;18.60;99.90;;;;;;4593353;19;20099;-69
2023/09/21 03:53:31;;;;;;;13.80;9.43;;;18.80;99.90;;;;;;4594669;19;20102;-69
2023/09/21 03:55:05;;;;;;;15.80;10.02;;;19.10;99.90;;;;;;4594693;19;20091;-69
2023/09/21 03:56:41;;;;;;;12.88;9.00;;;19.30;99.90;;;;;;4594905;19;20018;-69
2023/09/21 03:58:16;;;;;;;16.23;10.38;;;19.60;99.90;;;;;;4594993;19;20070;-69
2023/09/21 03:59:50;;;;;;;12.45;10.13;;;19.80;99.90;;;;;;4593999;19;20118;-69
2023/09/21 04:01:25;;;;;;;14.25;10.30;;;19.90;99.90;;;;;;4594781;19;20011;-69
2023/09/21 04:03:06;;;;;;;13.25;9.75;;;20.00;99.90;;;;;;4593379;19;20003;-69
2023/09/21 04:04:41;;;;;;;15.25;9.48;;;20.20;99.90;;;;;;4593014;19;20025;-69
2023/09/21 04:06:18;;;;;;;12.65;9.07;;;20.30;99.90;;;;;;4594836;19;20019;-69
2023/09/21 04:07:52;;;;;;;12.90;9.05;;;20.40;99.90;;;;;;4594576;19;20398;-69
2023/09/21 04:09:26;;;;;;;12.20;8.82;;;20.50;99.90;;;;;;4594392;19;20096;-69
2023/09/21 04:11:02;;;;;;;11.40;8.75;;;20.60;99.90;;;;;;4593608;19;20007;-69
2023/09/21 04:12:39;;;;;;;12.57;9.20;;;20.70;99.90;;;;;;4594499;19;19999;-69
2023/09/21 04:14:14;;;;;;;11.57;8.65;;;20.70;99.90;;;;;;4594241;19;20434;-69
2023/09/21 04:15:49;;;;;;;10.90;8.13;;;20.80;99.90;;;;;;4594419;19;20006;-69
2023/09/21 04:17:26;;;;;;;16.08;8.25;;;20.80;99.90;;;;;;4594193;19;20003;-69
2023/09/21 04:19:04;;;;;;;12.02;8.32;;;20.80;99.90;;;;;;4594290;19;20003;-69
2023/09/21 04:20:44;;;;;;;14.63;6.97;;;20.90;99.90;;;;;;4592814;19;20015;-69
2023/09/21 04:22:18;;;;;;;10.85;7.28;;;20.90;99.90;;;;;;4594067;19;20026;-70
2023/09/21 04:23:52;;;;;;;9.20;7.10;;;21.00;99.90;;;;;;4591355;19;20460;-69
2023/09/21 04:25:27;;;;;;;10.93;8.15;;;21.00;99.90;;;;;;4593908;19;20002;-69
2023/09/21 04:27:03;;;;;;;9.15;7.30;;;21.00;99.90;;;;;;4593900;19;20003;-69
2023/09/21 04:28:37;;;;;;;9.43;7.28;;;21.00;99.90;;;;;;4594239;19;20375;-69
2023/09/21 04:30:16;;;;;;;10.23;6.93;;;21.00;99.90;;;;;;4593145;19;20037;-69
2023/09/21 04:31:50;;;;;;;9.15;6.75;;;21.00;99.90;;;;;;4591207;19;20007;-69
2023/09/21 04:33:24;;;;;;;10.15;6.57;;;20.90;99.90;;;;;;4593763;19;20003;-69
2023/09/21 04:35:03;;;;;;;9.95;6.82;;;21.00;99.90;;;;;;4593907;19;20007;-69
2023/09/21 04:36:38;;;;;;;8.95;6.30;;;20.90;99.90;;;;;;4594119;19;20062;-69
2023/09/21 04:38:13;;;;;;;11.50;7.13;;;20.90;99.90;;;;;;4594162;19;20010;-69
2023/09/21 04:39:50;;;;;;;8.77;6.75;;;20.90;99.90;;;;;;4594037;19;20311;-69
2023/09/21 04:41:24;;;;;;;10.88;5.95;;;20.90;99.90;;;;;;4594480;19;20015;-69
2023/09/21 04:42:59;;;;;;;7.80;5.63;;;21.00;99.90;;;;;;4594238;19;20330;-69
2023/09/21 04:44:34;;;;;;;7.95;5.32;;;21.00;99.90;;;;;;4594153;19;20034;-69
2023/09/21 04:46:10;;;;;;;10.98;6.57;;;21.00;99.90;;;;;;4594428;19;20414;-69
2023/09/21 04:47:45;;;;;;;9.50;5.60;;;21.00;99.90;;;;;;4594498;19;20006;-69
2023/09/21 04:49:20;;;;;;;7.90;5.80;;;21.00;99.90;;;;;;4594084;19;20429;-69
2023/09/21 04:50:55;;;;;;;9.50;5.85;;;21.00;99.90;;;;;;4592619;19;20007;-69
2023/09/21 04:52:36;;;;;;;8.00;5.97;;;21.00;99.90;;;;;;4592683;19;20002;-69
2023/09/21 04:54:14;;;;;;;9.30;6.45;;;21.00;99.90;;;;;;4592689;19;20013;-69
2023/09/21 04:55:48;;;;;;;10.52;5.32;;;21.10;99.90;;;;;;4593705;19;20040;-69
2023/09/21 04:57:22;;;;;;;9.15;5.88;;;21.10;99.90;;;;;;4593911;19;19994;-69
2023/09/21 04:59:00;;;;;;;9.20;6.20;;;21.20;99.90;;;;;;4592625;19;20011;-69
2023/09/21 05:00:34;;;;;;;8.63;6.05;;;21.20;99.90;;;;;;4592460;19;20014;-69
2023/09/21 05:02:09;;;;;;;9.45;6.20;;;21.30;99.90;;;;;;4594080;19;19998;-69
2023/09/21 05:03:45;;;;;;;9.90;5.63;;;21.40;99.90;;;;;;4594138;19;20024;-69
2023/09/21 05:05:21;;;;;;;9.45;5.95;;;21.40;99.90;;;;;;4593739;19;20013;-69
2023/09/21 05:06:54;;;;;;;10.07;6.28;;;21.40;99.90;;;;;;4593996;19;20006;-69
2023/09/21 05:08:29;;;;;;;9.65;5.90;;;21.50;99.90;;;;;;4594000;19;20026;-69
2023/09/21 05:10:07;;;;;;;7.75;5.10;;;21.60;99.90;;;;;;4592055;19;20006;-69
2023/09/21 05:11:43;;;;;;;8.93;5.55;;;21.60;99.90;;;;;;4591532;19;20311;-69
2023/09/21 05:13:19;;;;;;;7.63;5.20;;;21.70;99.90;;;;;;4593614;19;20006;-69
2023/09/21 05:14:54;;;;;;;6.90;5.20;;;21.80;99.90;;;;;;4593503;19;20017;-69
2023/09/21 05:16:28;;;;;;;9.23;5.78;;;21.80;99.90;;;;;;4593866;19;20021;-69
2023/09/21 05:18:07;;;;;;;8.73;5.40;;;21.80;99.90;;;;;;4593573;19;20004;-70
2023/09/21 05:19:46;;;;;;;8.15;5.50;;;21.90;99.90;;;;;;4593297;19;20007;-69
2023/09/21 05:21:21;;;;;;;8.05;5.97;;;21.90;99.90;;;;;;4592426;19;20014;-69
2023/09/21 05:22:56;;;;;;;8.40;5.07;;;21.90;99.90;;;;;;4593508;19;20006;-69
2023/09/21 05:24:32;;;;;;;6.95;5.28;;;22.00;99.90;;;;;;4593313;19;20005;-69
2023/09/21 05:26:07;;;;;;;8.48;5.63;;;21.90;99.90;;;;;;4593433;19;20029;-69
2023/09/21 05:27:49;;;;;;;8.35;5.32;;;21.90;99.90;;;;;;4592178;19;20045;-69
2023/09/21 05:29:23;;;;;;;12.10;6.07;;;22.00;99.90;;;;;;4593648;19;20006;-69
2023/09/21 05:30:58;;;;;;;8.25;5.30;;;21.90;99.90;;;;;;4591949;19;20081;-69
2023/09/21 05:32:34;;;;;;;8.75;5.85;;;21.90;99.90;;;;;;4593278;19;20010;-69
2023/09/21 05:34:08;;;;;;;6.97;5.25;;;21.90;99.90;;;;;;4593408;19;19998;-69
2023/09/21 05:35:50;;;;;;;8.10;5.85;;;21.90;99.90;;;;;;4591359;19;20422;-69
2023/09/21 05:37:27;;;;;;;7.80;5.95;;;21.90;99.90;;;;;;4591747;19;20030;-69
2023/09/21 05:39:04;;;;;;;8.25;6.18;;;21.90;99.90;;;;;;4591454;19;20006;-70
2023/09/21 05:40:40;;;;;;;9.82;7.00;;;21.90;99.90;;;;;;4591416;19;20010;-70
2023/09/21 05:42:18;;;;;;;7.60;5.55;;;21.90;99.90;;;;;;4592871;19;20006;-70
2023/09/21 05:43:54;;;;;;;9.05;6.13;;;21.80;99.90;;;;;;4591256;19;20006;-69
2023/09/21 05:45:28;;;;;;;8.75;5.57;;;21.80;99.90;;;;;;4592170;19;20005;-69
2023/09/21 05:47:03;;;;;;;11.48;6.15;;;21.80;99.90;;;;;;4592724;19;20005;-69
2023/09/21 05:48:38;;;;;;;11.18;7.13;;;21.80;99.90;;;;;;4590964;19;20333;-69
2023/09/21 05:50:13;;;;;;;7.70;5.93;;;21.80;99.90;;;;;;4591638;19;20010;-69
2023/09/21 05:51:48;;;;;;;9.93;6.43;;;21.80;99.90;;;;;;4591540;19;20007;-69
2023/09/21 05:53:22;;;;;;;9.05;6.82;;;21.80;99.90;;;;;;4592356;19;20003;-69
2023/09/21 05:54:57;;;;;;;7.95;6.18;;;21.80;99.90;;;;;;4592641;19;20033;-71
2023/09/21 05:56:32;;;;;;;10.27;6.90;;;21.80;99.90;;;;;;4592378;19;20014;-69
2023/09/21 05:58:07;;;;;;;8.98;5.80;;;21.80;99.90;;;;;;4592213;19;20323;-69
2023/09/21 05:59:41;;;;;;;10.80;7.03;;;21.80;99.90;;;;;;4591943;19;20477;-69
2023/09/21 06:01:17;;;;;;;10.10;6.55;;;21.80;99.90;;;;;;4592389;19;20418;-69
2023/09/21 06:02:51;;;;;;;8.13;5.95;;;21.80;99.90;;;;;;4592385;19;20006;-69
2023/09/21 06:04:25;;;;;;;9.55;6.25;;;21.80;99.90;;;;;;4592054;19;20070;-69
2023/09/21 06:06:00;;;;;;;8.27;6.35;;;21.90;99.90;;;;;;4592348;19;20006;-69
2023/09/21 06:07:35;;;;;;;8.02;6.05;;;21.80;99.90;;;;;;4592070;19;20019;-70
2023/09/21 06:09:12;;;;;;;10.23;6.55;;;21.80;99.90;;;;;;4590669;19;20011;-69
2023/09/21 06:10:47;;;;;;;9.50;6.00;;;21.80;99.90;;;;;;4591012;19;20331;-70
2023/09/21 06:12:21;;;;;;;8.27;6.13;;;21.80;99.90;;;;;;4592014;19;20002;-69
2023/09/21 06:13:55;;;;;;;8.63;6.15;;;21.80;99.90;;;;;;4592263;19;19998;-69
2023/09/21 06:15:30;;;;;;;7.97;6.35;;;21.80;99.90;;;;;;4591959;19;20015;-69
2023/09/21 06:17:10;;;;;;;8.55;5.95;;;21.80;99.90;;;;;;4592182;19;20025;-69
2023/09/21 06:18:48;;;;;;;8.65;6.07;;;21.80;99.90;;;;;;4592245;19;20414;-69
2023/09/21 06:20:23;;;;;;;8.60;5.40;;;21.70;99.90;;;;;;4590874;19;20014;-69
2023/09/21 06:21:58;;;;;;;10.57;6.05;;;21.90;99.90;;;;;;4592247;19;20422;-69
2023/09/21 06:23:32;;;;;;;8.05;4.93;;;22.00;99.90;;;;;;4592041;19;20316;-71
2023/09/21 06:25:10;;;;;;;7.43;4.90;;;22.10;99.90;;;;;;4592166;19;19998;-70
2023/09/21 06:26:47;;;;;;;7.85;5.30;;;22.20;99.90;;;;;;4590535;19;20032;-71
2023/09/21 06:28:21;;;;;;;7.60;5.82;;;22.20;99.90;;;;;;4591485;19;20023;-70
2023/09/21 06:29:56;;;;;;;7.60;5.63;;;22.20;99.90;;;;;;4591199;19;20325;-70
2023/09/21 06:31:30;;;;;;;8.48;5.95;;;22.10;99.90;;;;;;4590802;19;20011;-70
2023/09/21 06:33:07;;;;;;;9.07;6.45;;;22.00;99.90;;;;;;4591539;19;20094;-70
2023/09/21 06:34:42;;;;;;;8.30;6.47;;;21.90;99.90;;;;;;4591656;19;20023;-69
2023/09/21 06:36:21;;;;;;;8.07;6.30;;;21.90;99.90;;;;;;4591583;19;20008;-69
2023/09/21 06:37:56;;;;;;;10.85;6.43;;;21.90;99.90;;;;;;4591892;19;20026;-69
2023/09/21 06:39:31;;;;;;;8.52;6.25;;;21.80;99.90;;;;;;4591515;19;20108;-70
2023/09/21 06:41:07;;;;;;;8.65;6.28;;;21.80;99.90;;;;;;4591434;19;19999;-70
2023/09/21 06:42:45;;;;;;;9.48;6.30;;;21.80;99.90;;;;;;4591069;19;20006;-70
2023/09/21 06:44:38;;;;;;;7.65;5.80;;;21.70;99.90;;;;;;4591355;19;20040;-69
2023/09/21 06:46:19;;;;;;;8.48;6.10;;;21.70;99.90;;;;;;4590869;19;20006;-70
2023/09/21 06:48:07;;;;;;;9.40;5.43;;;21.70;99.90;;;;;;4594703;19;20014;-70
2023/09/21 06:49:59;;;;;;;8.32;5.65;;;21.70;99.90;;;;;;4592609;19;20044;-71
2023/09/21 06:51:35;;;;;;;9.02;5.60;;;21.70;99.90;;;;;;4594597;19;20011;-71
2023/09/21 06:53:10;;;;;;;7.20;6.13;;;21.70;99.90;;;;;;4596359;19;20026;-70
2023/09/21 06:54:45;;;;;;;8.25;6.07;;;21.70;99.90;;;;;;4596286;19;19999;-69
2023/09/21 06:56:21;;;;;;;9.27;5.88;;;21.70;99.90;;;;;;4596531;19;20015;-71
2023/09/21 06:58:06;;;;;;;7.40;5.22;;;21.70;99.90;;;;;;4595992;19;20009;-69
2023/09/21 06:59:47;;;;;;;7.90;5.45;;;21.70;99.90;;;;;;4594466;19;20115;-70
2023/09/21 07:01:22;;;;;;;10.38;4.90;;;21.70;99.90;;;;;;4596014;19;20002;-70
2023/09/21 07:02:58;;;;;;;9.25;5.80;;;21.70;99.90;;;;;;4595881;19;20006;-71
2023/09/21 07:04:33;;;;;;;8.52;5.70;;;21.70;99.90;;;;;;4595757;19;20368;-75
2023/09/21 07:06:10;;;;;;;9.77;4.90;;;21.70;99.90;;;;;;4595739;19;20011;-71
2023/09/21 07:07:44;;;;;;;8.10;5.82;;;21.70;99.90;;;;;;4595617;19;20037;-69
2023/09/21 07:09:18;;;;;;;9.75;6.10;;;21.70;99.90;;;;;;4594122;19;20010;-69
2023/09/21 07:10:53;;;;;;;8.88;6.00;;;21.70;99.90;;;;;;4593928;19;20066;-69
2023/09/21 07:12:27;;;;;;;8.40;5.78;;;21.70;99.90;;;;;;4596382;19;19999;-70
2023/09/21 07:14:04;;;;;;;8.80;6.22;;;21.70;99.90;;;;;;4596050;19;20006;-69
2023/09/21 07:15:43;;;;;;;7.53;5.15;;;21.70;99.90;;;;;;4595083;19;20298;-70
2023/09/21 07:17:17;;;;;;;9.15;5.70;;;21.70;99.90;;;;;;4594906;19;20003;-70
2023/09/21 07:18:52;;;;;;;8.48;5.38;;;21.80;99.90;;;;;;4595526;19;20010;-71
2023/09/21 07:20:27;;;;;;;8.07;5.53;;;21.70;99.90;;;;;;4594456;19;20478;-70
2023/09/21 07:22:07;;;;;;;7.55;5.85;;;21.80;99.90;;;;;;4596132;19;20459;-70
2023/09/21 07:23:51;;;;;;;10.02;6.30;;;21.80;99.90;;;;;;4594863;19;20002;-70
2023/09/21 07:25:28;;;;;;;8.23;5.68;;;21.80;99.90;;;;;;4594416;19;20005;-70
2023/09/21 07:27:02;;;;;;;9.00;6.07;;;21.80;99.90;;;;;;4595419;19;20038;-70
2023/09/21 07:28:37;;;;;;;7.38;5.20;;;21.70;99.90;;;;;;4595644;19;20033;-70
2023/09/21 07:30:14;;;;;;;8.27;5.60;;;21.80;99.90;;;;;;4594850;19;20078;-71
2023/09/21 07:31:48;;;;;;;7.15;4.93;;;21.80;99.90;;;;;;4594584;19;20002;-70
2023/09/21 07:33:22;;;;;;;8.82;4.68;;;21.80;99.90;;;;;;4594252;19;20322;-68
2023/09/21 07:34:58;;;;;;;6.60;4.78;;;21.80;99.90;;;;;;4595610;19;20441;-71
2023/09/21 07:36:39;;;;;;;8.57;5.13;;;21.80;99.90;;;;;;4595826;19;20005;-70
2023/09/21 07:38:13;;;;;;;9.32;5.65;;;21.80;99.90;;;;;;4595720;19;20086;-70
2023/09/21 07:39:50;;;;;;;8.13;4.95;;;21.80;99.90;;;;;;4595207;19;20010;-70
2023/09/21 07:41:24;;;;;;;8.40;5.20;;;21.80;99.90;;;;;;4595542;19;20009;-70
2023/09/21 07:42:59;;;;;;;6.65;4.53;;;21.80;99.90;;;;;;4595701;19;20003;-69
2023/09/21 07:44:35;;;;;;;7.85;4.90;;;21.80;99.90;;;;;;4595493;19;20007;-70
2023/09/21 07:46:09;;;;;;;5.93;4.40;;;21.80;99.90;;;;;;4595385;19;20006;-77
2023/09/21 07:47:47;;;;;;;5.75;4.20;;;21.80;99.90;;;;;;4595331;19;20014;-69
2023/09/21 07:49:25;;;;;;;7.25;4.38;;;21.80;99.90;;;;;;4594119;19;20073;-69
2023/09/21 07:51:04;;;;;;;7.35;4.82;;;21.80;99.90;;;;;;4593447;19;20002;-70
2023/09/21 07:52:39;;;;;;;7.20;5.07;;;21.80;99.90;;;;;;4595268;19;20006;-70
2023/09/21 07:54:15;;;;;;;6.95;4.70;;;21.80;99.90;;;;;;4595339;19;20025;-70
2023/09/21 07:55:59;;;;;;;7.70;5.20;;;21.90;99.90;;;;;;4595441;19;20433;-70
2023/09/21 07:57:34;;;;;;;7.90;4.85;;;21.90;99.90;;;;;;4592812;19;20002;-70
2023/09/21 07:59:11;;;;;;;6.32;4.43;;;21.90;99.90;;;;;;4592700;19;20006;-70
2023/09/21 08:00:45;;;;;;;8.07;4.80;;;21.90;99.90;;;;;;4594165;19;20015;-70
2023/09/21 08:02:20;;;;;;;13.10;4.70;;;21.90;99.90;;;;;;4595342;19;20002;-70
2023/09/21 08:03:55;;;;;;;6.97;4.15;;;21.90;99.90;;;;;;4593760;19;20014;-70
2023/09/21 08:05:32;;;;;;;6.85;4.90;;;22.00;99.90;;;;;;4593930;19;20018;-70
2023/09/21 08:07:06;;;;;;;8.18;4.45;;;21.90;99.90;;;;;;4595084;19;20006;-70
2023/09/21 08:08:42;;;;;;;8.52;4.53;;;22.00;99.90;;;;;;4595302;19;20020;-69
2023/09/21 08:10:16;;;;;;;7.05;4.22;;;21.90;99.90;;;;;;4594408;19;20006;-70
2023/09/21 08:11:51;;;;;;;7.18;4.35;;;22.00;99.90;;;;;;4593847;19;20003;-70
2023/09/21 08:13:27;;;;;;;8.30;4.20;;;21.90;99.90;;;;;;4594916;19;20006;-69
2023/09/21 08:15:01;;;;;;;6.05;3.40;;;22.00;99.90;;;;;;4594863;19;20002;-69
2023/09/21 08:16:37;;;;;;;6.00;3.25;;;22.10;99.90;;;;;;4594737;19;20013;-69
2023/09/21 08:18:13;;;;;;;6.03;3.95;;;22.30;99.90;;;;;;4594812;19;20014;-69
2023/09/21 08:19:47;;;;;;;6.10;3.63;;;22.30;99.90;;;;;;4594647;19;19999;-69